createdAt,value
2018-04-17T00:01:49.491Z,9.06
2018-04-17T00:04:15.879Z,9.11
2018-04-17T00:06:42.386Z,9.22
2018-04-17T00:09:08.847Z,9.09
2018-04-17T00:11:35.292Z,9.17
2018-04-17T00:14:01.793Z,9.15
2018-04-17T00:16:28.173Z,9.09
2018-04-17T00:18:54.621Z,9.06
2018-04-17T00:21:20.993Z,9.08
2018-04-17T00:23:47.449Z,8.99
2018-04-17T00:26:13.888Z,8.99
2018-04-17T00:28:40.341Z,8.96
2018-04-17T00:31:06.742Z,8.96
2018-04-17T00:33:33.150Z,8.99
2018-04-17T00:35:59.621Z,8.93
2018-04-17T00:38:26.130Z,8.95
2018-04-17T00:40:52.564Z,8.95
2018-04-17T00:43:18.993Z,9.02
2018-04-17T00:45:45.402Z,9.01
2018-04-17T00:48:11.891Z,9.01
2018-04-17T00:50:38.406Z,8.97
2018-04-17T00:53:16.937Z,8.89
2018-04-17T00:55:43.317Z,8.93
2018-04-17T00:58:09.633Z,8.84
2018-04-17T01:00:35.974Z,8.85
2018-04-17T01:03:02.356Z,8.82
2018-04-17T01:05:28.752Z,8.83
2018-04-17T01:07:55.231Z,8.81
2018-04-17T01:10:21.662Z,8.89
2018-04-17T01:12:48.021Z,8.82
2018-04-17T01:15:14.392Z,8.83
2018-04-17T01:17:40.876Z,8.84
2018-04-17T01:20:07.234Z,8.90
2018-04-17T01:22:33.624Z,8.85
2018-04-17T01:25:00.024Z,8.83
2018-04-17T01:27:26.334Z,8.82
2018-04-17T01:29:53.694Z,8.94
2018-04-17T01:32:20.146Z,8.81
2018-04-17T01:34:46.497Z,8.79
2018-04-17T01:37:12.879Z,8.76
2018-04-17T01:39:39.261Z,8.72
2018-04-17T01:42:05.586Z,8.69
2018-04-17T01:44:32.002Z,8.70
2018-04-17T01:46:58.421Z,8.70
2018-04-17T01:49:24.866Z,8.66
2018-04-17T01:51:51.298Z,8.74
2018-04-17T01:54:17.688Z,8.79
2018-04-17T01:56:44.000Z,8.76
2018-04-17T01:59:10.437Z,8.77
2018-04-17T02:01:36.937Z,8.76
2018-04-17T02:04:03.269Z,8.79
2018-04-17T02:06:29.665Z,8.85
2018-04-17T02:08:56.164Z,8.82
2018-04-17T02:11:22.546Z,8.78
2018-04-17T02:13:48.900Z,8.79
2018-04-17T02:16:15.304Z,8.86
2018-04-17T02:18:41.635Z,8.85
2018-04-17T02:21:08.025Z,8.81
2018-04-17T02:23:34.527Z,8.81
2018-04-17T02:26:00.883Z,8.77
2018-04-17T02:28:27.296Z,8.77
2018-04-17T02:30:53.742Z,8.79
2018-04-17T02:33:20.094Z,8.73
2018-04-17T02:35:46.520Z,8.71
2018-04-17T02:38:13.058Z,8.74
2018-04-17T02:40:39.430Z,8.77
2018-04-17T02:43:05.842Z,8.76
2018-04-17T02:45:32.215Z,8.76
2018-04-17T02:47:58.629Z,8.75
2018-04-17T02:50:24.973Z,8.74
2018-04-17T02:52:51.362Z,8.77
2018-04-17T02:55:17.700Z,8.80
2018-04-17T02:57:44.104Z,8.79
2018-04-17T03:00:10.506Z,8.81
2018-04-17T03:02:36.842Z,8.83
2018-04-17T03:05:03.250Z,8.81
2018-04-17T03:07:29.696Z,8.81
2018-04-17T03:09:56.032Z,8.81
2018-04-17T03:12:22.434Z,8.79
2018-04-17T03:14:48.817Z,8.81
2018-04-17T03:17:15.198Z,8.83
2018-04-17T03:19:41.639Z,8.81
2018-04-17T03:22:08.013Z,8.79
2018-04-17T03:24:34.390Z,8.79
2018-04-17T03:27:00.727Z,8.78
2018-04-17T03:29:27.136Z,8.80
2018-04-17T03:31:53.552Z,8.82
2018-04-17T03:34:20.022Z,8.82
2018-04-17T03:36:46.506Z,8.93
2018-04-17T03:39:12.979Z,8.81
2018-04-17T03:41:39.512Z,8.83
2018-04-17T03:44:05.970Z,8.78
2018-04-17T03:46:32.341Z,8.78
2018-04-17T03:48:58.859Z,8.78
2018-04-17T03:51:25.281Z,8.78
2018-04-17T03:53:51.699Z,8.77
2018-04-17T03:56:18.153Z,8.78
2018-04-17T03:58:44.669Z,8.78
2018-04-17T04:01:11.215Z,8.80
2018-04-17T04:03:37.628Z,8.79
2018-04-17T04:06:04.013Z,8.77
2018-04-17T04:08:30.634Z,8.75
2018-04-17T04:10:57.065Z,8.73
2018-04-17T04:13:23.563Z,8.72
2018-04-17T04:15:49.989Z,8.74
2018-04-17T04:18:28.780Z,8.79
2018-04-17T04:21:07.342Z,8.77
2018-04-17T04:23:46.001Z,8.85
2018-04-17T04:26:24.585Z,8.81
2018-04-17T04:28:51.132Z,8.79
2018-04-17T04:31:17.658Z,8.93
2018-04-17T04:33:45.036Z,8.85
2018-04-17T04:36:12.285Z,8.81
2018-04-17T04:38:38.827Z,8.83
2018-04-17T04:41:05.286Z,8.88
2018-04-17T04:43:31.737Z,8.90
2018-04-17T04:45:58.198Z,8.94
2018-04-17T04:48:24.859Z,8.99
2018-04-17T04:50:51.561Z,8.99
2018-04-17T04:53:17.949Z,9.04
2018-04-17T04:55:44.342Z,9.11
2018-04-17T04:58:10.766Z,9.18
2018-04-17T05:00:37.271Z,9.31
2018-04-17T05:03:03.992Z,9.40
2018-04-17T05:05:30.431Z,9.60
2018-04-17T05:07:56.872Z,9.66
2018-04-17T05:10:23.312Z,9.70
2018-04-17T05:12:49.773Z,9.92
2018-04-17T05:15:16.230Z,9.99
2018-04-17T05:17:42.720Z,10.11
2018-04-17T05:20:09.152Z,10.32
2018-04-17T05:22:35.529Z,10.57
2018-04-17T05:25:01.922Z,10.71
2018-04-17T05:27:28.319Z,10.78
2018-04-17T05:29:54.673Z,11.11
2018-04-17T05:32:21.077Z,11.32
2018-04-17T05:34:47.517Z,11.82
2018-04-17T05:37:13.965Z,12.07
2018-04-17T05:39:40.513Z,12.33
2018-04-17T05:42:07.048Z,12.75
2018-04-17T05:44:33.874Z,12.55
2018-04-17T05:47:00.243Z,13.28
2018-04-17T05:49:26.861Z,14.50
2018-04-17T05:51:53.329Z,14.83
2018-04-17T05:54:19.680Z,14.45
2018-04-17T05:56:46.307Z,14.64
2018-04-17T05:59:12.801Z,14.11
2018-04-17T06:01:39.258Z,14.62
2018-04-17T06:04:05.733Z,14.17
2018-04-17T06:06:32.484Z,14.79
2018-04-17T06:08:59.002Z,15.36
2018-04-17T06:11:25.454Z,15.70
2018-04-17T06:13:51.820Z,15.93
2018-04-17T06:16:18.156Z,16.24
2018-04-17T06:18:44.752Z,15.13
2018-04-17T06:21:11.457Z,14.39
2018-04-17T06:23:38.113Z,14.27
2018-04-17T06:26:04.560Z,14.38
2018-04-17T06:28:31.037Z,14.02
2018-04-17T06:30:57.497Z,14.97
2018-04-17T06:33:23.941Z,14.93
2018-04-17T06:35:50.380Z,14.39
2018-04-17T06:38:17.102Z,14.37
2018-04-17T06:40:43.585Z,15.48
2018-04-17T06:43:09.951Z,15.96
2018-04-17T06:45:36.366Z,15.89
2018-04-17T06:48:02.821Z,15.98
2018-04-17T06:50:29.297Z,15.05
2018-04-17T06:52:55.632Z,14.93
2018-04-17T06:55:22.137Z,14.63
2018-04-17T06:57:48.519Z,15.00
2018-04-17T07:00:15.038Z,15.48
2018-04-17T07:02:41.378Z,15.50
2018-04-17T07:05:07.744Z,15.73
2018-04-17T07:07:34.112Z,16.44
2018-04-17T07:10:00.537Z,16.37
2018-04-17T07:12:26.862Z,16.65
2018-04-17T07:14:53.196Z,16.71
2018-04-17T07:17:19.687Z,17.46
2018-04-17T07:19:46.235Z,17.02
2018-04-17T07:22:12.565Z,16.84
2018-04-17T07:24:39.045Z,18.10
2018-04-17T07:27:05.381Z,17.85
2018-04-17T07:29:31.820Z,16.76
2018-04-17T07:31:58.259Z,16.67
2018-04-17T07:34:24.662Z,16.38
2018-04-17T07:36:51.211Z,17.18
2018-04-17T07:39:17.692Z,17.52
2018-04-17T07:41:44.192Z,17.65
2018-04-17T07:44:10.802Z,17.38
2018-04-17T07:46:37.212Z,17.50
2018-04-17T07:49:03.751Z,17.42
2018-04-17T07:51:30.172Z,17.23
2018-04-17T07:53:56.657Z,17.85
2018-04-17T07:56:23.011Z,17.76
2018-04-17T07:58:49.469Z,18.73
2018-04-17T08:01:16.089Z,19.27
2018-04-17T08:03:42.415Z,19.20
2018-04-17T08:06:08.758Z,18.93
2018-04-17T08:08:35.188Z,19.37
2018-04-17T08:11:01.546Z,18.77
2018-04-17T08:13:27.900Z,19.15
2018-04-17T08:15:54.358Z,19.04
2018-04-17T08:18:20.779Z,19.36
2018-04-17T08:20:47.193Z,19.53
2018-04-17T08:23:13.612Z,19.65
2018-04-17T08:25:40.040Z,19.90
2018-04-17T08:28:06.618Z,19.47
2018-04-17T08:30:33.084Z,19.77
2018-04-17T08:32:59.470Z,19.66
2018-04-17T08:35:25.848Z,19.24
2018-04-17T08:37:52.249Z,19.35
2018-04-17T08:40:18.709Z,20.15
2018-04-17T08:42:45.198Z,20.63
2018-04-17T08:45:11.613Z,20.84
2018-04-17T08:47:38.249Z,21.32
2018-04-17T08:50:04.764Z,21.38
2018-04-17T08:52:31.268Z,20.71
2018-04-17T08:54:57.686Z,20.57
2018-04-17T08:57:24.094Z,19.95
2018-04-17T08:59:50.659Z,19.82
2018-04-17T09:02:17.047Z,19.34
2018-04-17T09:04:43.499Z,20.03
2018-04-17T09:07:09.913Z,20.80
2018-04-17T09:09:36.353Z,20.41
2018-04-17T09:12:02.838Z,21.23
2018-04-17T09:14:29.321Z,20.88
2018-04-17T09:16:55.852Z,21.30
2018-04-17T09:19:22.256Z,20.66
2018-04-17T09:21:48.645Z,21.10
2018-04-17T09:24:15.169Z,21.53
2018-04-17T09:26:41.559Z,21.96
2018-04-17T09:29:08.042Z,21.42
2018-04-17T09:31:34.462Z,20.84
2018-04-17T09:34:00.833Z,20.99
2018-04-17T09:36:27.242Z,20.98
2018-04-17T09:38:53.669Z,21.35
2018-04-17T09:41:20.040Z,21.17
2018-04-17T09:43:46.461Z,21.38
2018-04-17T09:46:12.799Z,20.64
2018-04-17T09:48:39.134Z,21.49
2018-04-17T09:51:05.572Z,22.19
2018-04-17T09:53:31.994Z,21.94
2018-04-17T09:55:58.480Z,21.86
2018-04-17T09:58:24.928Z,21.61
2018-04-17T10:00:57.361Z,21.76
2018-04-17T10:03:23.782Z,21.68
2018-04-17T10:05:50.212Z,21.53
2018-04-17T10:08:16.644Z,22.13
2018-04-17T10:10:43.179Z,22.34
2018-04-17T10:13:09.619Z,21.91
2018-04-17T10:15:36.088Z,21.87
2018-04-17T10:18:02.543Z,22.61
2018-04-17T10:20:29.122Z,22.77
2018-04-17T10:22:55.486Z,22.45
2018-04-17T10:25:21.876Z,21.49
2018-04-17T10:27:48.315Z,21.13
2018-04-17T10:30:14.869Z,20.88
2018-04-17T10:32:41.290Z,20.86
2018-04-17T10:35:07.775Z,20.39
2018-04-17T10:37:34.290Z,20.13
2018-04-17T10:40:00.736Z,20.22
2018-04-17T10:42:27.208Z,20.23
2018-04-17T10:44:53.621Z,20.45
2018-04-17T10:47:20.018Z,20.49
2018-04-17T10:49:46.513Z,20.46
2018-04-17T10:52:12.850Z,20.21
2018-04-17T10:54:39.173Z,20.33
2018-04-17T10:57:05.602Z,20.40
2018-04-17T10:59:32.020Z,20.39
2018-04-17T11:01:58.431Z,20.46
2018-04-17T11:04:24.794Z,20.31
2018-04-17T11:06:51.185Z,20.64
2018-04-17T11:09:17.621Z,20.47
2018-04-17T11:11:44.001Z,20.56
2018-04-17T11:14:10.353Z,20.89
2018-04-17T11:16:36.796Z,21.13
2018-04-17T11:19:03.304Z,21.29
2018-04-17T11:21:29.669Z,22.27
2018-04-17T11:23:56.059Z,22.33
2018-04-17T11:26:22.467Z,21.47
2018-04-17T11:28:48.868Z,22.02
2018-04-17T11:31:15.354Z,21.75
2018-04-17T11:33:41.762Z,21.99
2018-04-17T11:36:08.126Z,21.96
2018-04-17T11:38:34.491Z,22.17
2018-04-17T11:41:00.931Z,22.42
2018-04-17T11:43:27.366Z,22.54
2018-04-17T11:45:53.730Z,22.55
2018-04-17T11:48:20.224Z,22.05
2018-04-17T11:50:46.632Z,22.23
2018-04-17T11:53:12.976Z,22.54
2018-04-17T11:55:39.441Z,22.11
2018-04-17T11:58:05.827Z,21.92
2018-04-17T12:00:32.301Z,22.02
2018-04-17T12:02:58.741Z,22.48
2018-04-17T12:05:25.256Z,21.30
2018-04-17T12:07:51.693Z,20.16
2018-04-17T12:10:19.174Z,20.08
2018-04-17T12:12:46.077Z,20.02
2018-04-17T12:15:12.501Z,20.08
2018-04-17T12:17:38.866Z,19.90
2018-04-17T12:20:05.314Z,20.55
2018-04-17T12:22:31.703Z,21.16
2018-04-17T12:24:58.293Z,20.54
2018-04-17T12:27:24.613Z,20.81
2018-04-17T12:29:51.034Z,20.86
2018-04-17T12:32:17.493Z,21.57
2018-04-17T12:34:43.933Z,21.01
2018-04-17T12:37:10.298Z,20.87
2018-04-17T12:39:36.775Z,21.08
2018-04-17T12:42:03.232Z,20.41
2018-04-17T12:44:29.674Z,20.03
2018-04-17T12:46:56.050Z,19.56
2018-04-17T12:49:22.552Z,19.39
2018-04-17T12:51:50.121Z,19.95
2018-04-17T12:54:16.676Z,20.36
2018-04-17T12:56:43.133Z,20.38
2018-04-17T12:59:09.555Z,20.67
2018-04-17T13:01:36.050Z,20.46
2018-04-17T13:04:03.268Z,20.41
2018-04-17T13:06:29.645Z,20.96
2018-04-17T13:08:56.131Z,21.20
2018-04-17T13:11:23.013Z,20.57
2018-04-17T13:13:49.409Z,20.14
2018-04-17T13:16:15.915Z,20.31
2018-04-17T13:18:42.483Z,20.06
2018-04-17T13:21:08.955Z,19.95
2018-04-17T13:23:35.357Z,19.73
2018-04-17T13:26:01.683Z,19.79
2018-04-17T13:28:28.088Z,19.81
2018-04-17T13:30:54.565Z,20.05
2018-04-17T13:33:20.909Z,20.09
2018-04-17T13:35:47.324Z,19.92
2018-04-17T13:38:13.822Z,19.62
2018-04-17T13:40:40.318Z,19.23
2018-04-17T13:43:06.794Z,19.13
2018-04-17T13:45:33.188Z,19.04
2018-04-17T13:47:59.535Z,19.11
2018-04-17T13:50:26.079Z,19.47
2018-04-17T13:52:52.571Z,19.62
2018-04-17T13:55:18.950Z,19.38
2018-04-17T13:57:45.384Z,19.62
2018-04-17T14:00:11.979Z,19.69
2018-04-17T14:02:38.419Z,19.48
2018-04-17T14:05:04.838Z,19.31
2018-04-17T14:07:31.296Z,19.55
2018-04-17T14:09:57.811Z,19.08
2018-04-17T14:12:24.186Z,19.01
2018-04-17T14:14:50.675Z,19.01
2018-04-17T14:17:17.130Z,19.47
2018-04-17T14:19:43.511Z,19.69
2018-04-17T14:22:09.948Z,19.81
2018-04-17T14:24:36.471Z,19.90
2018-04-17T14:27:02.909Z,19.99
2018-04-17T14:29:29.485Z,19.94
2018-04-17T14:31:55.912Z,19.74
2018-04-17T14:34:22.295Z,19.62
2018-04-17T14:36:48.760Z,19.43
2018-04-17T14:39:15.330Z,19.47
2018-04-17T14:41:41.804Z,19.40
2018-04-17T14:44:08.423Z,19.61
2018-04-17T14:46:34.853Z,19.84
2018-04-17T14:49:01.236Z,19.63
2018-04-17T14:51:27.752Z,19.64
2018-04-17T14:53:54.184Z,19.72
2018-04-17T14:56:20.535Z,19.38
2018-04-17T14:58:46.922Z,18.99
2018-04-17T15:01:13.470Z,19.04
2018-04-17T15:03:39.908Z,18.96
2018-04-17T15:06:06.307Z,19.00
2018-04-17T15:08:32.717Z,18.78
2018-04-17T15:10:59.177Z,18.81
2018-04-17T15:13:25.630Z,18.81
2018-04-17T15:15:52.086Z,18.75
2018-04-17T15:18:18.489Z,18.82
2018-04-17T15:20:44.956Z,19.06
2018-04-17T15:23:11.928Z,19.13
2018-04-17T15:25:38.363Z,19.33
2018-04-17T15:28:04.773Z,19.29
2018-04-17T15:30:31.257Z,19.00
2018-04-17T15:32:58.213Z,18.78
2018-04-17T15:35:32.212Z,18.45
2018-04-17T15:37:58.869Z,18.12
2018-04-17T15:40:25.391Z,18.04
2018-04-17T15:42:51.955Z,17.95
2018-04-17T15:45:18.589Z,18.00
2018-04-17T15:47:45.153Z,18.10
2018-04-17T15:50:11.812Z,18.10
2018-04-17T15:52:38.767Z,18.01
2018-04-17T15:55:05.302Z,18.07
2018-04-17T15:57:31.771Z,18.05
2018-04-17T15:59:58.216Z,17.88
2018-04-17T16:02:24.678Z,17.77
2018-04-17T16:04:51.238Z,17.69
2018-04-17T16:07:17.720Z,17.55
2018-04-17T16:09:44.238Z,17.43
2018-04-17T16:12:10.968Z,17.32
2018-04-17T16:14:37.532Z,17.28
2018-04-17T16:17:04.111Z,17.22
2018-04-17T16:19:30.808Z,17.23
2018-04-17T16:21:57.529Z,17.16
2018-04-17T16:24:24.041Z,16.98
2018-04-17T16:26:51.268Z,16.88
2018-04-17T16:29:18.169Z,16.78
2018-04-17T16:31:44.638Z,16.68
2018-04-17T16:34:11.135Z,16.50
2018-04-17T16:36:37.623Z,16.39
2018-04-17T16:39:07.129Z,16.07
2018-04-17T16:41:33.781Z,15.81
2018-04-17T16:44:00.277Z,15.68
2018-04-17T16:46:26.991Z,15.46
2018-04-17T16:48:53.686Z,15.36
2018-04-17T16:51:21.442Z,15.39
2018-04-17T16:53:48.136Z,15.21
2018-04-17T16:56:15.244Z,15.08
2018-04-17T16:58:41.887Z,14.95
2018-04-17T17:01:08.880Z,14.92
2018-04-17T17:03:36.037Z,14.89
2018-04-17T17:06:02.989Z,14.79
2018-04-17T17:08:29.517Z,14.78
2018-04-17T17:10:56.355Z,14.72
2018-04-17T17:13:22.828Z,14.68
2018-04-17T17:15:49.234Z,14.64
2018-04-17T17:18:15.951Z,14.63
2018-04-17T17:20:42.567Z,14.58
2018-04-17T17:23:09.070Z,14.45
2018-04-17T17:25:35.625Z,14.41
2018-04-17T17:28:02.032Z,14.44
2018-04-17T17:30:28.571Z,14.43
2018-04-17T17:32:55.129Z,14.43
2018-04-17T17:35:21.552Z,14.36
2018-04-17T17:37:48.116Z,14.32
2018-04-17T17:40:14.604Z,14.29
2018-04-17T17:42:41.777Z,14.31
2018-04-17T17:45:08.531Z,14.18
2018-04-17T17:47:35.042Z,14.10
2018-04-17T17:50:01.682Z,14.03
2018-04-17T17:52:28.336Z,13.99
2018-04-17T17:54:54.754Z,13.85
2018-04-17T17:57:21.100Z,13.73
2018-04-17T17:59:47.575Z,13.70
2018-04-17T18:02:14.096Z,13.58
2018-04-17T18:04:40.473Z,13.40
2018-04-17T18:07:06.909Z,13.30
2018-04-17T18:09:33.458Z,13.23
2018-04-17T18:11:59.939Z,13.22
2018-04-17T18:14:26.591Z,13.12
2018-04-17T18:16:53.316Z,13.11
2018-04-17T18:19:19.821Z,12.94
2018-04-17T18:21:46.321Z,12.87
2018-04-17T18:24:12.815Z,12.85
2018-04-17T18:26:39.240Z,12.77
2018-04-17T18:29:05.597Z,12.75
2018-04-17T18:31:32.066Z,12.68
2018-04-17T18:33:58.518Z,12.58
2018-04-17T18:36:25.144Z,12.53
2018-04-17T18:38:51.679Z,12.49
2018-04-17T18:41:18.191Z,12.49
2018-04-17T18:43:45.179Z,12.41
2018-04-17T18:46:11.779Z,12.31
2018-04-17T18:48:38.305Z,12.26
2018-04-17T18:51:04.831Z,12.20
2018-04-17T18:53:31.850Z,12.17
2018-04-17T18:55:58.763Z,12.06
2018-04-17T18:58:25.380Z,12.00
2018-04-17T19:00:52.099Z,11.97
2018-04-17T19:03:18.647Z,11.89
2018-04-17T19:05:45.214Z,11.88
2018-04-17T19:08:11.738Z,11.81
2018-04-17T19:10:38.325Z,11.78
2018-04-17T19:13:04.925Z,11.77
2018-04-17T19:15:31.549Z,11.77
2018-04-17T19:17:58.036Z,11.68
2018-04-17T19:20:24.698Z,11.60
2018-04-17T19:22:51.215Z,11.64
2018-04-17T19:25:17.630Z,11.58
2018-04-17T19:27:44.128Z,11.53
2018-04-17T19:30:11.135Z,11.44
2018-04-17T19:32:37.563Z,11.35
2018-04-17T19:35:03.977Z,11.27
2018-04-17T19:37:30.424Z,11.20
2018-04-17T19:39:57.731Z,11.20
2018-04-17T19:42:24.195Z,11.13
2018-04-17T19:44:50.704Z,11.10
2018-04-17T19:47:17.219Z,11.05
2018-04-17T19:49:43.817Z,11.05
2018-04-17T19:52:10.270Z,10.99
2018-04-17T19:54:36.670Z,10.93
2018-04-17T19:57:03.143Z,10.89
2018-04-17T19:59:29.557Z,10.89
2018-04-17T20:01:56.069Z,10.85
2018-04-17T20:04:22.449Z,10.80
2018-04-17T20:06:49.000Z,10.75
2018-04-17T20:09:15.453Z,10.71
2018-04-17T20:11:41.984Z,10.67
2018-04-17T20:14:08.517Z,10.63
2018-04-17T20:16:34.960Z,10.55
2018-04-17T20:19:01.400Z,10.56
2018-04-17T20:21:27.962Z,10.53
2018-04-17T20:23:54.366Z,10.50
2018-04-17T20:26:20.872Z,10.39
2018-04-17T20:28:47.423Z,10.36
2018-04-17T20:31:14.467Z,10.32
2018-04-17T20:33:42.872Z,10.30
2018-04-17T20:36:12.550Z,10.31
2018-04-17T20:38:39.591Z,10.32
2018-04-17T20:41:06.280Z,10.26
2018-04-17T20:43:32.862Z,10.28
2018-04-17T20:45:59.318Z,10.26
2018-04-17T20:48:26.144Z,10.26
2018-04-17T20:50:52.871Z,10.21
2018-04-17T20:53:19.412Z,10.17
2018-04-17T20:55:45.864Z,10.14
2018-04-17T20:58:12.595Z,10.12
2018-04-17T21:00:39.096Z,10.12
2018-04-17T21:03:05.512Z,10.12
2018-04-17T21:05:31.972Z,10.08
2018-04-17T21:07:58.441Z,10.04
2018-04-17T21:10:24.880Z,9.99
2018-04-17T21:12:51.236Z,10.02
2018-04-17T21:15:17.668Z,10.00
2018-04-17T21:17:44.004Z,9.92
2018-04-17T21:20:10.368Z,9.93
2018-04-17T21:22:36.825Z,9.91
2018-04-17T21:25:03.250Z,9.88
2018-04-17T21:27:29.866Z,9.87
2018-04-17T21:29:56.409Z,9.88
2018-04-17T21:32:22.747Z,9.89
2018-04-17T21:34:49.313Z,9.90
2018-04-17T21:37:15.702Z,9.92
2018-04-17T21:39:42.067Z,9.91
2018-04-17T21:42:08.524Z,10.00
2018-04-17T21:44:34.869Z,9.89
2018-04-17T21:47:01.920Z,9.89
2018-04-17T21:49:28.370Z,9.81
2018-04-17T21:51:54.859Z,9.71
2018-04-17T21:54:21.233Z,9.68
2018-04-17T21:56:47.855Z,9.65
2018-04-17T21:59:14.303Z,9.61
2018-04-17T22:01:40.624Z,9.71
2018-04-17T22:04:07.039Z,9.76
2018-04-17T22:06:33.376Z,9.81
2018-04-17T22:08:59.694Z,9.81
2018-04-17T22:11:26.246Z,9.73
2018-04-17T22:13:52.690Z,9.65
2018-04-17T22:16:19.330Z,9.57
2018-04-17T22:18:45.783Z,9.54
2018-04-17T22:21:12.397Z,9.55
2018-04-17T22:23:38.887Z,9.51
2018-04-17T22:26:05.615Z,9.47
2018-04-17T22:28:31.927Z,9.42
2018-04-17T22:30:58.620Z,9.42
2018-04-17T22:33:25.391Z,9.35
2018-04-17T22:35:51.978Z,9.34
2018-04-17T22:38:18.432Z,9.37
2018-04-17T22:40:44.912Z,9.32
2018-04-17T22:43:11.331Z,9.36
2018-04-17T22:45:37.797Z,9.34
2018-04-17T22:48:04.384Z,9.39
2018-04-17T22:50:31.181Z,9.42
2018-04-17T22:52:57.611Z,9.39
2018-04-17T22:55:23.977Z,9.36
2018-04-17T22:57:50.414Z,9.32
2018-04-17T23:00:16.869Z,9.22
2018-04-17T23:02:43.315Z,9.30
2018-04-17T23:05:09.753Z,9.40
2018-04-17T23:07:36.102Z,9.28
2018-04-17T23:10:03.476Z,9.17
2018-04-17T23:12:29.750Z,9.13
2018-04-17T23:14:56.172Z,9.17
2018-04-17T23:17:22.505Z,9.21
2018-04-17T23:19:48.865Z,9.25
2018-04-17T23:22:15.343Z,9.14
2018-04-17T23:24:41.660Z,9.13
2018-04-17T23:27:08.017Z,9.11
2018-04-17T23:29:34.491Z,9.07
2018-04-17T23:32:00.905Z,9.11
2018-04-17T23:34:27.235Z,9.26
2018-04-17T23:36:53.586Z,9.33
2018-04-17T23:39:19.868Z,9.15
2018-04-17T23:41:46.307Z,8.99
2018-04-17T23:44:12.682Z,8.91
2018-04-17T23:46:39.026Z,8.87
2018-04-17T23:49:05.329Z,8.85
2018-04-17T23:51:31.959Z,8.88
2018-04-17T23:53:58.342Z,8.79
2018-04-17T23:56:24.702Z,8.77
2018-04-17T23:58:51.065Z,8.80
